Time;durP1;ratioP1;P1;durP2;ratioP2;P2;SDS_P1;SDS_P2;PMS_P1;PMS_P2;Temp;Humidity;BMP_temperature;BMP_pressure;BME280_temperature;BME280_humidity;BME280_pressure;Samples;Min_cycle;Max_cycle;Signal;HPM_P1;HPM_P2
2022/09/04 00:01:35;;;;;;;8.32;7.05;;;18.40;94.40;;;;;;5037422;28;20041;-69
2022/09/04 00:04:21;;;;;;;7.70;6.97;;;19.00;94.70;;;;;;5048386;28;20071;-69
2022/09/04 00:06:59;;;;;;;9.48;8.43;;;18.40;93.70;;;;;;5038664;28;20033;-69
2022/09/04 00:10:08;;;;;;;8.23;7.28;;;18.40;94.00;;;;;;5028699;28;20026;-69
2022/09/04 00:12:43;;;;;;;7.82;7.07;;;18.30;94.20;;;;;;5028878;28;20045;-69
2022/09/04 00:15:18;;;;;;;8.82;7.93;;;18.30;94.70;;;;;;5037370;28;20029;-69
2022/09/04 00:18:07;;;;;;;8.85;7.95;;;18.20;95.00;;;;;;5030281;28;20064;-69
2022/09/04 00:20:44;;;;;;;8.02;7.28;;;18.30;95.30;;;;;;5028908;28;20410;-69
2022/09/04 00:23:20;;;;;;;9.40;7.45;;;18.30;94.40;;;;;;5030553;28;20144;-69
2022/09/04 00:25:52;;;;;;;8.57;7.82;;;18.00;95.20;;;;;;5049015;28;20266;-69
2022/09/04 00:28:31;;;;;;;9.35;8.35;;;18.20;95.60;;;;;;5047618;28;20029;-69
2022/09/04 00:31:24;;;;;;;8.48;7.68;;;18.20;94.80;;;;;;5048658;28;20035;-69
2022/09/04 00:34:09;;;;;;;6.75;6.05;;;18.10;95.60;;;;;;5048254;28;20033;-69
2022/09/04 00:36:40;;;;;;;9.18;8.38;;;18.10;94.30;;;;;;5048696;28;20021;-69
2022/09/04 00:39:17;;;;;;;8.77;7.88;;;18.10;95.70;;;;;;5048378;28;20108;-69
2022/09/04 00:42:11;;;;;;;9.65;8.23;;;18.20;95.90;;;;;;5048614;28;20039;-69
2022/09/04 00:45:00;;;;;;;8.23;7.50;;;18.20;95.30;;;;;;5040426;28;20471;-69
2022/09/04 00:47:47;;;;;;;8.93;7.45;;;18.10;95.20;;;;;;5046540;28;20095;-69
2022/09/04 00:50:47;;;;;;;9.90;8.90;;;18.10;95.30;;;;;;5040716;28;20358;-69
2022/09/04 00:53:34;;;;;;;8.70;7.90;;;18.00;95.60;;;;;;5027635;28;20129;-69
2022/09/04 00:56:50;;;;;;;9.60;8.70;;;18.10;95.80;;;;;;5027911;28;20021;-69
2022/09/04 00:59:44;;;;;;;9.57;8.60;;;18.00;95.80;;;;;;5001758;28;20083;-69
2022/09/04 01:02:32;;;;;;;10.40;9.27;;;18.10;95.80;;;;;;5021605;28;20022;-69
2022/09/04 01:05:24;;;;;;;11.40;10.30;;;18.10;96.80;;;;;;4967060;28;20049;-69
2022/09/04 01:07:59;;;;;;;10.00;9.15;;;17.90;96.10;;;;;;4973067;28;20077;-69
2022/09/04 01:10:45;;;;;;;9.20;8.23;;;17.90;96.40;;;;;;4955291;28;20141;-69
2022/09/04 01:13:22;;;;;;;10.70;9.48;;;17.90;97.20;;;;;;4960285;28;20146;-69
2022/09/04 01:16:07;;;;;;;10.60;9.50;;;17.90;96.50;;;;;;4972470;28;20030;-69
2022/09/04 01:18:56;;;;;;;11.15;9.68;;;17.90;96.70;;;;;;4966639;28;20023;-69
2022/09/04 01:21:29;;;;;;;11.00;9.88;;;17.90;96.90;;;;;;4966324;28;20019;-68
2022/09/04 01:24:16;;;;;;;13.75;12.50;;;17.80;96.40;;;;;;4973519;28;20193;-68
2022/09/04 01:27:15;;;;;;;13.52;12.15;;;17.80;97.30;;;;;;4985757;28;20083;-68
2022/09/04 01:29:52;;;;;;;12.98;11.63;;;17.80;97.70;;;;;;4986428;28;20052;-69
2022/09/04 01:32:39;;;;;;;11.85;10.73;;;17.80;97.60;;;;;;4985506;28;20054;-69
2022/09/04 01:35:33;;;;;;;16.42;11.93;;;17.80;97.80;;;;;;4984339;28;20043;-69
2022/09/04 01:38:10;;;;;;;10.82;9.80;;;17.80;98.00;;;;;;4975352;28;20058;-69
2022/09/04 01:41:06;;;;;;;12.82;11.55;;;17.80;97.90;;;;;;4949833;28;20448;-69
2022/09/04 01:43:31;;;;;;;13.10;11.73;;;17.70;98.10;;;;;;5024617;28;20064;-69
2022/09/04 01:46:09;;;;;;;13.23;12.02;;;17.80;98.60;;;;;;5031553;28;20420;-69
2022/09/04 01:48:37;;;;;;;13.90;12.32;;;17.70;98.50;;;;;;5044477;28;20119;-69
2022/09/04 01:51:22;;;;;;;14.88;11.52;;;17.80;98.10;;;;;;5019319;28;20415;-68
2022/09/04 01:54:01;;;;;;;12.60;11.32;;;17.70;99.40;;;;;;5020116;28;20502;-69
2022/09/04 01:56:42;;;;;;;12.68;11.40;;;17.70;99.50;;;;;;5030907;28;20026;-69
2022/09/04 01:59:21;;;;;;;14.32;12.85;;;17.70;99.70;;;;;;5031416;28;20218;-69
2022/09/04 02:02:07;;;;;;;13.77;12.38;;;17.60;99.10;;;;;;5042462;28;20095;-69
2022/09/04 02:04:45;;;;;;;13.80;12.38;;;17.50;99.90;;;;;;5031201;28;20014;-69
2022/09/04 02:07:29;;;;;;;15.00;13.52;;;17.60;99.90;;;;;;5031231;28;20545;-69
2022/09/04 02:10:00;;;;;;;;;;;17.50;99.90;;;;;;5031654;28;20478;-69
2022/09/04 02:12:41;;;;;;;12.88;11.68;;;17.60;99.80;;;;;;5030553;28;20975;-71
2022/09/04 02:15:25;;;;;;;13.27;11.93;;;17.50;99.70;;;;;;5030706;28;20489;-71
2022/09/04 02:18:01;;;;;;;;;;;17.40;99.90;;;;;;5031674;28;20025;-69
2022/09/04 02:20:29;;;;;;;14.27;12.70;;;17.60;99.90;;;;;;5030885;28;19967;-71
2022/09/04 02:23:28;;;;;;;14.05;12.57;;;17.40;99.90;;;;;;5032165;28;20025;-71
2022/09/04 02:26:06;;;;;;;14.85;13.52;;;17.50;99.90;;;;;;5035384;28;20359;-71
2022/09/04 02:28:47;;;;;;;15.93;14.23;;;17.40;99.90;;;;;;5047606;28;21732;-70
2022/09/04 02:31:55;;;;;;;13.93;12.40;;;17.30;99.90;;;;;;5050553;28;20036;-70
2022/09/04 02:34:37;;;;;;;15.63;14.32;;;17.30;99.90;;;;;;4988901;28;20046;-70
2022/09/04 02:37:13;;;;;;;15.00;13.50;;;17.30;99.90;;;;;;4989314;28;20538;-70
2022/09/04 02:40:01;;;;;;;15.52;14.05;;;17.30;99.90;;;;;;4988342;28;20350;-70
2022/09/04 02:42:41;;;;;;;15.65;14.10;;;17.30;99.90;;;;;;4987241;28;20473;-70
2022/09/04 02:45:06;;;;;;;16.65;14.90;;;17.30;99.90;;;;;;4986974;28;20026;-70
2022/09/04 02:48:02;;;;;;;17.25;15.65;;;17.20;99.90;;;;;;4988050;28;20112;-70
2022/09/04 02:50:37;;;;;;;15.05;13.60;;;17.20;99.90;;;;;;4988207;28;20114;-70
2022/09/04 02:53:29;;;;;;;15.27;13.88;;;17.20;99.90;;;;;;4968518;28;20073;-70
2022/09/04 02:56:07;;;;;;;15.13;13.48;;;17.20;99.90;;;;;;4985366;28;20035;-70
2022/09/04 02:59:02;;;;;;;18.55;16.48;;;17.00;99.90;;;;;;4988536;28;20077;-70
2022/09/04 03:01:43;;;;;;;15.63;14.02;;;17.10;99.90;;;;;;4949795;28;20042;-70
2022/09/04 03:04:19;;;;;;;17.27;15.60;;;17.10;99.90;;;;;;4988908;28;20026;-70
2022/09/04 03:07:09;;;;;;;15.73;14.23;;;17.10;99.90;;;;;;4988793;28;20027;-70
2022/09/04 03:09:46;;;;;;;16.77;14.77;;;17.20;99.90;;;;;;5049713;28;20029;-71
2022/09/04 03:12:36;;;;;;;16.13;14.45;;;17.00;99.90;;;;;;5050027;28;20417;-70
2022/09/04 03:15:20;;;;;;;15.77;14.18;;;17.10;99.90;;;;;;5043739;28;20174;-70
2022/09/04 03:18:03;;;;;;;16.15;14.55;;;17.00;99.90;;;;;;5048615;28;20025;-70
2022/09/04 03:20:35;;;;;;;15.55;14.13;;;17.00;99.90;;;;;;5049871;28;20025;-70
2022/09/04 03:23:26;;;;;;;17.55;15.85;;;17.10;99.90;;;;;;5049573;28;20088;-70
2022/09/04 03:26:00;;;;;;;15.75;14.15;;;16.90;99.90;;;;;;5021075;28;20025;-70
2022/09/04 03:29:01;;;;;;;17.30;15.45;;;16.90;99.90;;;;;;5049568;28;20100;-71
2022/09/04 03:31:36;;;;;;;18.35;15.93;;;16.80;99.90;;;;;;4987976;28;20045;-70
2022/09/04 03:34:22;;;;;;;18.85;16.77;;;16.90;99.90;;;;;;4971889;28;20488;-70
2022/09/04 03:37:25;;;;;;;17.05;14.93;;;16.70;99.90;;;;;;4971299;28;20030;-70
2022/09/04 03:40:15;;;;;;;18.70;16.73;;;15.90;99.90;;;;;;4988183;28;20448;-71
2022/09/04 03:43:00;;;;;;;17.17;15.55;;;16.90;99.90;;;;;;4964336;28;20066;-70
2022/09/04 03:45:41;;;;;;;19.15;17.35;;;16.90;99.90;;;;;;4971309;28;20082;-70
2022/09/04 03:48:06;;;;;;;19.45;17.30;;;16.80;99.90;;;;;;4976971;28;20042;-70
2022/09/04 03:50:55;;;;;;;17.58;15.85;;;17.40;99.90;;;;;;4957608;28;20026;-70
2022/09/04 03:53:44;;;;;;;22.63;20.23;;;16.70;99.90;;;;;;4986784;28;20034;-70
2022/09/04 03:56:40;;;;;;;20.30;18.13;;;16.70;99.90;;;;;;4987625;28;20030;-70
2022/09/04 03:59:33;;;;;;;18.95;17.15;;;16.70;99.90;;;;;;4987675;28;20030;-70
2022/09/04 04:02:06;;;;;;;19.77;16.67;;;17.00;99.90;;;;;;4987776;28;20034;-70
2022/09/04 04:04:59;;;;;;;21.40;19.20;;;17.30;99.90;;;;;;4971110;28;20053;-70
2022/09/04 04:07:41;;;;;;;22.23;19.58;;;16.70;99.90;;;;;;5007771;28;20029;-70
2022/09/04 04:10:32;;;;;;;20.38;18.27;;;16.70;99.90;;;;;;5049365;28;20033;-70
2022/09/04 04:13:03;;;;;;;18.02;16.25;;;16.60;99.90;;;;;;5049027;28;20091;-70
2022/09/04 04:15:45;;;;;;;21.20;18.75;;;16.70;99.90;;;;;;5040019;28;20124;-70
2022/09/04 04:18:38;;;;;;;20.73;18.65;;;16.50;99.90;;;;;;5048701;28;20114;-70
2022/09/04 04:21:32;;;;;;;20.98;18.75;;;16.60;99.90;;;;;;5047041;28;20017;-70
2022/09/04 04:24:29;;;;;;;21.35;19.05;;;16.70;99.90;;;;;;5049074;28;20040;-70
2022/09/04 04:27:10;;;;;;;20.83;18.45;;;16.40;99.90;;;;;;5048926;28;20101;-70
2022/09/04 04:29:53;;;;;;;20.90;18.80;;;16.90;99.90;;;;;;5048930;28;20119;-70
2022/09/04 04:32:40;;;;;;;19.60;17.67;;;16.50;99.90;;;;;;5047142;28;20793;-70
2022/09/04 04:35:11;;;;;;;25.15;21.10;;;16.60;99.90;;;;;;5048046;28;20025;-70
2022/09/04 04:37:50;;;;;;;21.30;19.17;;;16.50;99.90;;;;;;5048753;28;20055;-70
2022/09/04 04:40:29;;;;;;;21.55;19.50;;;16.50;99.90;;;;;;5048269;28;20086;-70
2022/09/04 04:42:58;;;;;;;23.15;20.80;;;16.50;99.90;;;;;;5046004;28;20363;-70
2022/09/04 04:48:25;;;;;;;;;;;16.50;99.90;;;;;;5048804;28;20043;-70
2022/09/04 04:51:30;;;;;;;21.92;18.85;;;16.50;99.90;;;;;;5047902;28;19985;-71
2022/09/04 04:54:18;;;;;;;21.63;19.33;;;16.50;99.90;;;;;;5048409;28;20034;-71
2022/09/04 04:57:11;;;;;;;26.35;23.55;;;16.50;99.90;;;;;;5048570;28;20021;-71
2022/09/04 04:59:50;;;;;;;21.55;19.25;;;16.40;99.90;;;;;;5048273;28;20024;-70
2022/09/04 05:02:30;;;;;;;25.17;22.15;;;16.40;99.90;;;;;;5048013;28;20107;-70
2022/09/04 05:05:01;;;;;;;23.23;20.70;;;16.40;99.90;;;;;;5048070;28;20470;-70
2022/09/04 05:07:45;;;;;;;23.42;21.17;;;16.50;99.90;;;;;;5047681;28;20100;-70
2022/09/04 05:10:18;;;;;;;22.83;20.42;;;16.40;99.90;;;;;;5038391;28;20080;-70
2022/09/04 05:13:12;;;;;;;22.27;20.00;;;16.40;99.90;;;;;;5044458;28;20055;-70
2022/09/04 05:15:41;;;;;;;24.42;21.90;;;16.50;99.90;;;;;;5025628;28;20029;-70
2022/09/04 05:18:34;;;;;;;25.83;21.67;;;16.20;99.90;;;;;;5045466;28;20128;-70
2022/09/04 05:21:22;;;;;;;22.73;20.17;;;16.40;99.90;;;;;;5047699;28;20033;-70
2022/09/04 05:24:16;;;;;;;24.65;21.70;;;16.60;99.90;;;;;;5047990;28;20115;-70
2022/09/04 05:26:48;;;;;;;;;;;16.50;99.90;;;;;;5048161;28;20106;-71
2022/09/04 05:29:42;;;;;;;22.50;20.10;;;16.50;99.90;;;;;;5047865;28;19915;-70
2022/09/04 05:32:28;;;;;;;24.17;21.65;;;16.60;99.90;;;;;;5047747;28;20489;-71
2022/09/04 05:35:01;;;;;;;22.92;20.67;;;16.50;99.90;;;;;;5047850;28;20029;-70
2022/09/04 05:37:55;;;;;;;23.73;20.95;;;16.60;99.90;;;;;;5047790;28;20085;-70
2022/09/04 05:40:47;;;;;;;25.15;20.52;;;16.60;99.90;;;;;;5047355;28;20051;-70
2022/09/04 05:43:40;;;;;;;23.55;21.05;;;16.70;99.90;;;;;;5041084;28;20045;-70
2022/09/04 05:46:15;;;;;;;22.02;19.65;;;17.30;99.90;;;;;;5022654;28;20017;-70
2022/09/04 05:49:06;;;;;;;22.27;20.02;;;16.60;99.90;;;;;;5047151;28;20052;-70
2022/09/04 05:52:02;;;;;;;21.65;19.63;;;16.70;99.90;;;;;;5047368;28;20083;-70
2022/09/04 05:54:46;;;;;;;22.80;20.70;;;16.80;99.90;;;;;;5047289;28;20044;-70
2022/09/04 05:57:57;;;;;;;20.60;18.27;;;16.80;99.90;;;;;;5047286;28;20051;-70
2022/09/04 06:00:25;;;;;;;22.70;20.38;;;16.80;99.90;;;;;;5040932;28;20033;-70
2022/09/04 06:03:12;;;;;;;24.10;21.50;;;16.80;99.90;;;;;;5047049;28;20096;-70
2022/09/04 06:05:40;;;;;;;25.23;20.58;;;16.90;99.90;;;;;;5047128;28;20025;-70
2022/09/04 06:08:40;;;;;;;22.95;20.73;;;16.90;99.90;;;;;;5047630;28;20338;-71
2022/09/04 06:11:43;;;;;;;18.73;16.90;;;16.90;99.90;;;;;;5047185;28;20049;-70
2022/09/04 06:14:18;;;;;;;22.13;19.15;;;17.00;99.90;;;;;;5033948;28;20044;-70
2022/09/04 06:16:59;;;;;;;23.80;19.73;;;17.00;99.90;;;;;;5047071;28;20518;-70
2022/09/04 06:19:36;;;;;;;22.20;19.83;;;17.10;99.90;;;;;;5046834;28;20020;-70
2022/09/04 06:22:14;;;;;;;20.75;18.45;;;17.20;99.90;;;;;;5047579;28;20021;-71
2022/09/04 06:24:58;;;;;;;23.15;20.45;;;17.40;99.90;;;;;;5046927;28;20099;-71
2022/09/04 06:27:48;;;;;;;23.17;20.77;;;17.40;99.90;;;;;;5047071;28;20124;-70
2022/09/04 06:30:16;;;;;;;21.48;19.27;;;17.30;99.90;;;;;;5047641;28;21239;-70
2022/09/04 06:32:56;;;;;;;22.60;20.35;;;17.40;99.90;;;;;;5050263;28;20154;-71
2022/09/04 06:35:49;;;;;;;22.48;20.23;;;17.60;99.90;;;;;;5050658;28;20520;-71
2022/09/04 06:38:45;;;;;;;23.40;21.17;;;17.50;99.90;;;;;;5050617;28;20021;-71
2022/09/04 06:41:52;;;;;;;24.58;20.65;;;17.70;99.90;;;;;;5050741;28;20477;-70
2022/09/04 06:44:45;;;;;;;27.02;20.67;;;18.00;99.90;;;;;;4969335;28;20476;-71
2022/09/04 06:47:50;;;;;;;21.75;19.63;;;18.00;99.90;;;;;;4966796;28;20086;-71
2022/09/04 06:50:25;;;;;;;23.10;20.65;;;18.30;99.90;;;;;;4970593;28;20034;-71
2022/09/04 06:53:15;;;;;;;21.55;19.35;;;18.40;99.90;;;;;;4974318;28;20121;-71
2022/09/04 06:55:56;;;;;;;21.73;19.65;;;19.80;99.90;;;;;;4976726;28;20590;-71
2022/09/04 06:58:54;;;;;;;20.83;18.70;;;18.60;99.90;;;;;;4976055;28;20053;-71
2022/09/04 07:01:59;;;;;;;21.90;19.80;;;18.80;99.90;;;;;;4965379;28;20414;-71
2022/09/04 07:04:28;;;;;;;20.85;18.80;;;18.80;99.90;;;;;;4968800;28;20522;-71
2022/09/04 07:07:18;;;;;;;21.00;18.92;;;18.90;99.90;;;;;;4968595;28;20547;-71
2022/09/04 07:09:56;;;;;;;18.33;16.70;;;19.00;99.90;;;;;;4957151;28;20582;-71
2022/09/04 07:12:45;;;;;;;19.00;17.20;;;18.90;99.90;;;;;;4968207;28;20263;-71
2022/09/04 07:15:29;;;;;;;19.20;17.17;;;19.00;99.90;;;;;;4960278;28;20513;-71
2022/09/04 07:18:20;;;;;;;19.73;17.88;;;19.00;99.90;;;;;;4952018;28;20034;-71
2022/09/04 07:21:02;;;;;;;19.95;18.00;;;19.00;99.90;;;;;;4992751;28;20030;-71
2022/09/04 07:23:58;;;;;;;19.73;17.83;;;18.90;99.90;;;;;;5044492;28;20031;-73
2022/09/04 07:26:35;;;;;;;22.70;19.38;;;18.90;99.90;;;;;;5049780;28;20450;-73
2022/09/04 07:29:09;;;;;;;19.65;17.73;;;18.90;99.90;;;;;;5049124;28;20025;-73
2022/09/04 07:31:45;;;;;;;20.60;18.60;;;19.00;99.90;;;;;;5048040;28;20029;-72
2022/09/04 07:34:17;;;;;;;19.50;17.52;;;19.10;99.90;;;;;;5028342;28;20122;-72
2022/09/04 07:36:53;;;;;;;19.30;17.35;;;19.00;99.90;;;;;;5037306;28;20108;-72
2022/09/04 07:39:37;;;;;;;21.10;19.02;;;19.30;99.90;;;;;;5028662;28;20092;-72
2022/09/04 07:42:15;;;;;;;19.08;17.20;;;19.30;99.90;;;;;;5023649;28;20053;-72
2022/09/04 07:44:46;;;;;;;23.10;20.90;;;19.50;99.90;;;;;;5027166;28;20053;-72
2022/09/04 07:47:54;;;;;;;21.27;19.17;;;19.20;99.90;;;;;;5030814;28;20120;-72
2022/09/04 07:50:30;;;;;;;18.63;16.73;;;19.40;99.90;;;;;;5028936;28;20024;-72
2022/09/04 07:53:28;;;;;;;17.70;15.80;;;20.10;99.90;;;;;;5026584;28;20061;-72
2022/09/04 07:56:05;;;;;;;17.80;15.93;;;19.70;99.90;;;;;;4966363;28;20026;-72
2022/09/04 07:59:01;;;;;;;19.30;17.33;;;19.70;99.90;;;;;;4978596;28;20093;-72
2022/09/04 08:01:59;;;;;;;18.70;16.83;;;19.90;99.90;;;;;;4949752;28;20031;-72
2022/09/04 08:04:36;;;;;;;17.02;15.32;;;20.00;99.90;;;;;;4970302;28;20025;-72
2022/09/04 08:07:06;;;;;;;18.20;16.40;;;20.70;99.90;;;;;;4966897;28;20027;-73
2022/09/04 08:09:34;;;;;;;18.83;16.98;;;20.10;99.90;;;;;;4966140;28;20046;-72
2022/09/04 08:12:15;;;;;;;17.58;15.85;;;20.20;99.90;;;;;;4965674;28;20518;-72
2022/09/04 08:14:53;;;;;;;17.45;15.73;;;20.30;99.90;;;;;;4953238;28;20042;-72
2022/09/04 08:17:41;;;;;;;16.13;14.48;;;20.50;99.90;;;;;;4966410;28;20027;-72
2022/09/04 08:20:19;;;;;;;19.40;17.40;;;20.40;99.90;;;;;;4969899;28;20030;-72
2022/09/04 08:22:57;;;;;;;15.15;13.65;;;21.00;99.90;;;;;;4966931;28;20035;-72
2022/09/04 08:25:26;;;;;;;15.65;14.13;;;20.70;99.90;;;;;;4961708;28;20105;-72
2022/09/04 08:27:59;;;;;;;15.50;14.00;;;20.70;99.90;;;;;;4946755;28;20443;-74
2022/09/04 08:30:30;;;;;;;16.00;14.40;;;20.90;99.90;;;;;;4950821;28;20058;-71
2022/09/04 08:33:10;;;;;;;14.65;13.25;;;20.90;99.90;;;;;;5024594;28;20040;-71
2022/09/04 08:35:45;;;;;;;14.20;12.93;;;21.00;99.60;;;;;;5034150;28;20384;-72
2022/09/04 08:38:25;;;;;;;15.75;14.32;;;21.30;99.80;;;;;;5042240;28;20478;-72
2022/09/04 08:41:20;;;;;;;15.68;13.80;;;22.40;99.90;;;;;;5021161;28;20106;-72
2022/09/04 08:44:03;;;;;;;13.63;11.32;;;21.30;99.80;;;;;;5046618;28;20036;-70
2022/09/04 08:46:38;;;;;;;;;;;21.40;98.50;;;;;;5036333;28;20033;-75
2022/09/04 08:49:15;;;;;;;13.90;12.27;;;21.40;99.00;;;;;;5026121;28;20377;-70
2022/09/04 08:51:41;;;;;;;12.40;11.20;;;22.40;99.70;;;;;;5028290;28;20379;-70
2022/09/04 08:54:28;;;;;;;12.13;10.85;;;21.50;98.80;;;;;;5027836;28;20034;-70
2022/09/04 08:57:18;;;;;;;14.27;12.80;;;21.70;98.00;;;;;;5039696;28;20129;-70
2022/09/04 08:59:56;;;;;;;12.43;11.18;;;21.70;98.30;;;;;;5020678;28;20546;-71
2022/09/04 09:02:40;;;;;;;11.52;10.43;;;21.90;98.70;;;;;;5027803;28;20018;-71
2022/09/04 09:05:43;;;;;;;12.23;10.90;;;21.90;97.40;;;;;;5027918;28;20399;-71
2022/09/04 09:08:40;;;;;;;13.05;11.00;;;22.00;97.70;;;;;;5022469;28;20063;-71
2022/09/04 09:11:37;;;;;;;10.45;9.38;;;22.30;97.40;;;;;;5027495;28;20375;-71
2022/09/04 09:14:21;;;;;;;9.75;8.70;;;22.30;97.10;;;;;;5027794;28;20030;-71
2022/09/04 09:17:11;;;;;;;12.80;10.68;;;22.50;96.90;;;;;;5018281;28;20021;-72
2022/09/04 09:20:24;;;;;;;12.05;10.85;;;22.50;96.80;;;;;;5027814;28;20096;-72
2022/09/04 09:23:34;;;;;;;10.60;9.60;;;22.50;96.60;;;;;;4966185;28;20062;-71
2022/09/04 09:26:16;;;;;;;9.48;8.63;;;22.70;97.20;;;;;;4927631;29;20040;-72
2022/09/04 09:29:19;;;;;;;9.27;8.32;;;22.80;95.80;;;;;;4912669;29;20036;-72
2022/09/04 09:32:12;;;;;;;11.80;10.65;;;22.90;96.20;;;;;;4921469;29;20036;-71
2022/09/04 09:34:50;;;;;;;9.75;8.75;;;23.00;95.80;;;;;;4922627;29;20047;-71
2022/09/04 09:37:45;;;;;;;10.05;8.98;;;23.10;95.30;;;;;;4894148;29;20036;-72
2022/09/04 09:40:25;;;;;;;9.32;8.20;;;23.10;95.60;;;;;;4903230;29;20073;-72
2022/09/04 09:43:21;;;;;;;10.25;8.27;;;23.20;95.40;;;;;;4909057;29;20138;-72
2022/09/04 09:46:07;;;;;;;8.20;7.38;;;23.30;95.30;;;;;;4908888;29;20478;-72
2022/09/04 09:48:50;;;;;;;8.52;7.72;;;23.40;95.20;;;;;;4902813;29;20115;-72
2022/09/04 09:51:40;;;;;;;6.83;6.13;;;23.40;95.60;;;;;;4908620;29;20055;-71
2022/09/04 09:54:55;;;;;;;10.80;8.52;;;23.50;94.80;;;;;;4910762;29;20316;-72
2022/09/04 09:57:32;;;;;;;7.63;6.88;;;23.60;94.50;;;;;;4908638;29;20554;-72
2022/09/04 10:00:17;;;;;;;9.43;6.30;;;23.70;95.20;;;;;;5006905;28;20034;-72
2022/09/04 10:02:55;;;;;;;6.82;6.13;;;23.70;93.80;;;;;;5036398;28;20020;-72
2022/09/04 10:05:38;;;;;;;7.80;6.63;;;23.70;93.70;;;;;;5020172;28;20431;-72
2022/09/04 10:08:13;;;;;;;;;;;23.90;94.70;;;;;;5030966;28;20056;-72
2022/09/04 10:11:07;;;;;;;6.57;6.07;;;23.40;94.60;;;;;;5031305;28;20346;-71
2022/09/04 10:14:14;;;;;;;6.50;5.60;;;24.10;93.50;;;;;;5031030;28;20398;-72
2022/09/04 10:17:03;;;;;;;5.72;5.22;;;24.20;93.40;;;;;;5031315;28;20024;-72
2022/09/04 10:19:47;;;;;;;6.10;5.50;;;24.20;93.20;;;;;;5030972;28;20478;-72
2022/09/04 10:22:50;;;;;;;7.60;5.22;;;24.60;93.90;;;;;;5030116;28;20374;-72
2022/09/04 10:26:06;;;;;;;7.90;6.68;;;24.40;92.70;;;;;;5041532;28;20505;-72
2022/09/04 10:29:17;;;;;;;7.35;4.75;;;24.50;92.40;;;;;;5024681;28;20047;-76
2022/09/04 10:32:04;;;;;;;5.80;5.28;;;24.60;92.30;;;;;;5050861;28;20036;-72
2022/09/04 10:34:38;;;;;;;5.05;4.60;;;24.40;91.90;;;;;;5050739;28;20041;-72
2022/09/04 10:37:27;;;;;;;7.65;4.90;;;24.70;91.80;;;;;;5048228;28;20470;-71
2022/09/04 10:43:30;;;;;;;7.55;3.75;;;25.00;90.90;;;;;;5041779;28;20040;-71
2022/09/04 10:46:11;;;;;;;5.25;3.30;;;25.20;91.10;;;;;;5022282;28;20358;-69
2022/09/04 10:48:54;;;;;;;2.97;2.03;;;25.30;90.70;;;;;;5033790;28;20097;-70
2022/09/04 10:51:46;;;;;;;;;;;25.40;90.40;;;;;;5035929;28;20446;-71
2022/09/04 10:54:30;;;;;;;5.10;2.90;;;25.40;90.60;;;;;;5036852;28;19932;-70
2022/09/04 10:57:30;;;;;;;7.13;2.85;;;25.50;90.70;;;;;;5030285;28;20018;-70
2022/09/04 11:00:12;;;;;;;3.50;3.10;;;25.80;89.30;;;;;;5027770;28;20093;-71
2022/09/04 11:03:05;;;;;;;3.67;2.20;;;25.70;89.70;;;;;;5034549;28;20052;-71
2022/09/04 11:05:58;;;;;;;4.20;2.17;;;25.90;87.70;;;;;;5026457;28;20024;-71
2022/09/04 11:08:48;;;;;;;4.45;2.15;;;26.10;87.10;;;;;;5030070;28;20026;-71
2022/09/04 11:11:57;;;;;;;2.75;2.00;;;26.20;86.10;;;;;;5038148;28;20601;-71
2022/09/04 11:14:42;;;;;;;2.40;2.17;;;26.40;85.80;;;;;;5026209;28;20048;-70
2022/09/04 11:17:27;;;;;;;3.42;2.38;;;26.50;87.00;;;;;;5035267;28;20078;-70
2022/09/04 11:20:21;;;;;;;2.67;2.00;;;26.60;83.50;;;;;;5038577;28;20032;-70
2022/09/04 11:23:00;;;;;;;2.78;1.92;;;26.70;83.40;;;;;;5044709;28;20445;-70
2022/09/04 11:26:01;;;;;;;3.17;2.40;;;26.80;84.70;;;;;;5024809;28;20044;-71
2022/09/04 11:29:09;;;;;;;2.30;1.67;;;27.00;84.20;;;;;;5033959;28;20016;-70
2022/09/04 11:31:48;;;;;;;4.53;2.67;;;27.00;82.10;;;;;;5016975;28;20018;-70
2022/09/04 11:34:32;;;;;;;3.95;3.10;;;27.00;83.30;;;;;;5024970;28;20316;-71
2022/09/04 11:37:16;;;;;;;4.45;2.83;;;28.10;83.80;;;;;;5029448;28;20072;-71
2022/09/04 11:39:50;;;;;;;5.40;2.63;;;27.10;82.80;;;;;;5029648;28;20408;-71
2022/09/04 11:42:39;;;;;;;3.63;2.53;;;27.10;80.70;;;;;;5029332;28;20423;-70
2022/09/04 11:45:28;;;;;;;3.85;2.15;;;27.10;80.40;;;;;;5022780;28;20108;-70
2022/09/04 11:48:12;;;;;;;4.60;1.88;;;27.00;80.20;;;;;;5030055;28;20021;-70
2022/09/04 11:51:02;;;;;;;3.55;2.50;;;27.00;79.20;;;;;;5028925;28;20057;-70
2022/09/04 11:53:45;;;;;;;3.65;2.05;;;27.00;80.30;;;;;;5028926;28;20140;-71
2022/09/04 11:56:26;;;;;;;4.85;1.92;;;27.20;80.00;;;;;;5040010;28;20033;-72
2022/09/04 11:59:30;;;;;;;1.60;1.42;;;27.50;81.60;;;;;;5027696;28;20134;-71
2022/09/04 12:02:26;;;;;;;1.80;1.40;;;27.30;79.20;;;;;;5035937;28;20036;-70
2022/09/04 12:05:11;;;;;;;2.50;2.08;;;27.40;78.20;;;;;;5038491;28;20025;-70
2022/09/04 12:08:10;;;;;;;3.22;2.20;;;27.50;78.80;;;;;;5028739;28;20037;-70
2022/09/04 12:11:03;;;;;;;2.10;1.90;;;27.60;77.10;;;;;;5021831;28;20079;-71
2022/09/04 12:14:08;;;;;;;2.42;1.98;;;27.70;76.70;;;;;;5027348;28;20041;-71
2022/09/04 12:16:52;;;;;;;3.08;2.17;;;27.80;76.80;;;;;;5041595;28;20443;-70
2022/09/04 12:19:29;;;;;;;;;;;27.80;76.80;;;;;;5015523;28;20080;-71
2022/09/04 12:22:35;;;;;;;2.83;1.85;;;27.70;77.50;;;;;;5037569;28;19913;-73
2022/09/04 12:25:10;;;;;;;3.15;2.47;;;27.50;76.90;;;;;;5041531;28;20033;-71
2022/09/04 12:28:14;;;;;;;2.78;2.58;;;27.30;78.30;;;;;;5031344;28;20469;-73
2022/09/04 12:30:52;;;;;;;2.42;2.22;;;27.20;76.60;;;;;;5041497;28;20029;-72
2022/09/04 12:33:37;;;;;;;2.88;1.98;;;27.30;78.30;;;;;;5046726;28;20043;-71
2022/09/04 12:36:24;;;;;;;2.92;2.30;;;27.30;75.90;;;;;;5034219;28;20026;-72
2022/09/04 12:39:16;;;;;;;2.67;2.30;;;27.40;76.50;;;;;;5027863;28;20029;-72
2022/09/04 12:41:53;;;;;;;2.63;1.50;;;27.50;76.50;;;;;;5019704;28;20052;-70
2022/09/04 12:44:47;;;;;;;3.70;1.65;;;27.60;75.90;;;;;;5024348;28;20115;-74
2022/09/04 12:47:32;;;;;;;3.70;2.35;;;27.70;77.30;;;;;;5027969;28;20025;-74
2022/09/04 12:50:14;;;;;;;2.20;1.90;;;27.70;75.40;;;;;;5024340;28;20466;-73
2022/09/04 12:53:15;;;;;;;2.28;1.27;;;27.70;75.40;;;;;;5026728;28;20124;-70
2022/09/04 12:55:49;;;;;;;3.25;1.80;;;27.70;75.40;;;;;;4966857;28;20042;-69
2022/09/04 12:58:36;;;;;;;2.30;1.38;;;27.70;76.50;;;;;;4966705;28;20062;-68
2022/09/04 13:01:14;;;;;;;2.97;1.80;;;28.00;74.50;;;;;;4950588;28;20042;-70
2022/09/04 13:04:13;;;;;;;4.22;2.20;;;28.00;73.30;;;;;;4958143;28;20022;-69
2022/09/04 13:07:07;;;;;;;5.47;1.80;;;28.20;74.00;;;;;;4963512;28;20322;-69
2022/09/04 13:09:38;;;;;;;;;;;28.10;73.50;;;;;;4967125;28;20023;-69
2022/09/04 13:12:19;;;;;;;1.95;1.38;;;28.20;74.10;;;;;;4957849;28;19918;-70
2022/09/04 13:14:59;;;;;;;2.38;1.30;;;28.90;75.40;;;;;;4966749;28;20189;-69
2022/09/04 13:17:33;;;;;;;2.92;1.67;;;29.20;74.80;;;;;;4957669;28;20034;-70
2022/09/04 13:20:33;;;;;;;2.00;1.60;;;28.40;71.20;;;;;;4962740;28;20381;-70
2022/09/04 13:23:19;;;;;;;3.17;1.30;;;28.20;72.10;;;;;;4971134;28;20046;-70
2022/09/04 13:26:19;;;;;;;1.90;1.23;;;28.30;72.60;;;;;;4974653;28;20526;-70
2022/09/04 13:28:45;;;;;;;2.28;1.33;;;28.30;72.20;;;;;;4985949;28;20026;-70
2022/09/04 13:31:48;;;;;;;2.35;1.35;;;28.50;73.60;;;;;;4984836;28;20082;-70
2022/09/04 13:34:36;;;;;;;3.33;1.40;;;28.40;72.60;;;;;;5024241;28;20132;-71
2022/09/04 13:37:09;;;;;;;3.53;1.35;;;28.70;74.20;;;;;;5028287;28;20081;-73
2022/09/04 13:40:11;;;;;;;3.53;1.30;;;28.40;73.30;;;;;;5038037;28;20024;-72
2022/09/04 13:42:54;;;;;;;1.17;1.08;;;28.50;71.30;;;;;;5038453;28;20163;-70
2022/09/04 13:45:25;;;;;;;2.58;0.88;;;28.60;70.60;;;;;;5042367;28;20067;-71
2022/09/04 13:48:12;;;;;;;3.17;0.90;;;29.00;72.10;;;;;;5041576;28;20032;-70
2022/09/04 13:50:47;;;;;;;1.00;0.70;;;28.60;71.80;;;;;;5032282;28;20553;-70
2022/09/04 13:53:22;;;;;;;1.35;0.88;;;29.70;72.20;;;;;;5026278;28;20045;-71
2022/09/04 13:55:53;;;;;;;2.17;1.10;;;28.70;68.90;;;;;;5023644;28;20026;-71
2022/09/04 13:58:22;;;;;;;1.17;0.90;;;28.70;70.50;;;;;;5037327;28;20374;-71
2022/09/04 14:00:55;;;;;;;3.33;0.93;;;28.50;70.20;;;;;;5036252;28;20083;-70
2022/09/04 14:03:44;;;;;;;1.05;0.93;;;29.60;71.10;;;;;;5026934;28;20033;-71
2022/09/04 14:06:13;;;;;;;3.90;0.90;;;28.50;68.50;;;;;;5026649;28;20029;-71
2022/09/04 14:08:42;;;;;;;1.02;0.90;;;29.40;71.10;;;;;;5037116;28;20018;-71
2022/09/04 14:11:45;;;;;;;1.20;0.90;;;29.60;71.00;;;;;;5026277;28;20025;-71
2022/09/04 14:14:28;;;;;;;1.08;0.82;;;28.40;68.60;;;;;;5027135;28;20041;-71
2022/09/04 14:16:54;;;;;;;1.00;0.52;;;28.40;68.10;;;;;;5027726;28;20025;-72